• Join FlightAware (Why Join?)
  • Login
  • US Flag 
05:56PM EST


 

Airport Tracker/Info


-or-


 

Live Flight TrackerFlight Track Log ✈ EGF4247 ✈ 20-Apr-2013 ✈ KBUF - KORD

Flight Track Log - Related Links

Times and Time Zones

All times are in EDT time to prevent confusion due to time zone crossing. See the EGF4247 flight status page for this flight to view local times or setup timezone preferences in your user account.

Time Position Orientation Groundspeed Altitude Reporting Facility
EDT Latitude Longitude Course Direction KTS MPH feet Rate Location/Type
04:19PM 42.9333 -78.7500 277° West 159 183 1,500  Level Buffalo TRACON
04:20PM 42.9167 -78.8000 246° West 193 222 3,700 2,760 Climbing Buffalo TRACON
04:21PM 42.9167 -78.8667 270° West 198 228 6,800 2,520 Climbing Buffalo TRACON
04:22PM 42.9500 -79.0406 270° West  Level FlightAware Approximate
04:22PM 42.9333 -78.9500 285° West 225 259 8,500  Level Buffalo TRACON
04:22PM 42.9333 -78.9500 285° West 220 253 9,300 1,680 Climbing Toronto Center
04:23PM 42.9569 -79.1490 277° West  Level FlightAware Approximate
04:23PM 42.9500 -79.0333 285° West 240 276 10,900  Level Toronto Center
04:24PM 42.9659 -79.2572 277° West  Level FlightAware Approximate
04:24PM 42.9500 -79.1500 270° West 290 334 11,000  Level Toronto Center
04:25PM 42.9500 -79.2833 270° West 320 368 12,100 1,380 Climbing Toronto Center
04:26PM 42.9667 -79.4000 281° West 320 368 13,800 1,020 Climbing Toronto Center
04:27PM 42.9667 -79.5500 270° West 330 380 14,200 1,320 Climbing Toronto Center
04:28PM 42.9667 -79.6500 270° West 320 368 16,500 1,800 Climbing Toronto Center
04:29PM 42.9833 -79.7667 281° West 310 357 17,800 1,260 Climbing Toronto Center
04:30PM 42.9833 -79.8833 270° West 320 368 19,100 1,380 Climbing Toronto Center
04:31PM 42.9833 -80.0000 270° West 320 368 20,600 1,440 Climbing Toronto Center
04:32PM 43.0000 -80.1333 280° West 320 368 22,000 960 Climbing Toronto Center
04:33PM 43.0000 -80.2500 270° West 320 368 22,600 540 Climbing Toronto Center
04:34PM 43.0000 -80.3833 270° West 340 391 23,100 540 Climbing Toronto Center
04:35PM 43.0167 -80.5167 280° West 340 391 23,700 600 Climbing Toronto Center
04:36PM 43.0167 -80.6333 270° West 350 403 24,300 600 Climbing Toronto Center
04:37PM 43.0167 -80.7667 270° West 350 403 25,000 600 Climbing Toronto Center
04:38PM 43.0167 -80.9167 270° West 350 403 25,600 600 Climbing Toronto Center
04:39PM 43.0167 -81.0500 270° West 350 403 26,200 600 Climbing Toronto Center
04:40PM 43.0167 -81.1833 270° West 350 403 26,800 600 Climbing Toronto Center
04:41PM 43.0167 -81.3167 270° West 350 403 27,400 600 Climbing Toronto Center
04:42PM 43.0167 -81.4500 270° West 350 403 28,000 600 Climbing Toronto Center
04:43PM 43.0167 -81.6000 270° West 350 403 28,600 600 Climbing Toronto Center
04:44PM 43.0167 -81.7000 270° West 350 403 29,200 600 Climbing Toronto Center
04:45PM 43.0167 -81.8500 270° West 360 414 29,800 360 Climbing Toronto Center
04:46PM 43.0000 -82.0000 261° West 370 426 30,000 60 Climbing Toronto Center
04:47PM 43.0000 -82.1333 270° West 380 437 30,000  Level Toronto Center
04:48PM 43.0000 -82.3000 270° West 390 449 30,000  Level Toronto Center
04:49PM 43.0000 -82.4333 270° West 390 449 30,000 480 Level Toronto Center
04:50PM 43.0000 -82.6000 270° West 390 449 31,000 900 Climbing Toronto Center
04:51PM 43.0019 -82.6697 272° West 385 443 31,400 1,080 Climbing Cleveland Center
04:52PM 42.9994 -82.8058 269° West 380 437 32,700 1,080 Climbing Cleveland Center
04:53PM 42.9944 -82.9478 267° West 374 430 33,600 600 Climbing Cleveland Center
04:54PM 42.9894 -83.0836 267° West 369 425 34,000 180 Climbing Cleveland Center
04:55PM 42.9842 -83.2283 267° West 369 425 34,000  Level Cleveland Center
04:56PM 42.9789 -83.3728 267° West 375 432 34,000  Level Cleveland Center
04:57PM 42.9731 -83.5172 267° West 381 438 34,000  Level Cleveland Center
04:58PM 42.9672 -83.6617 267° West 381 438 34,000  Level Cleveland Center
04:59PM 42.9592 -83.8061 266° West 386 444 34,000  Level Cleveland Center
05:00PM 42.9447 -83.9500 262° West 386 444 34,000  Level Cleveland Center
05:01PM 42.9300 -84.0939 262° West 386 444 34,000  Level Cleveland Center
05:02PM 42.9172 -84.2350 263° West 386 444 34,000 -660 Level Cleveland Center
05:04PM 42.8931 -84.4922 263° West 376 433 32,200 -720 Descending Chicago Center
05:05PM 42.8783 -84.6339 262° West 377 434 32,000 -120 Descending Chicago Center
05:06PM 42.8644 -84.7764 262° West 379 436 32,000  Level Chicago Center
05:07PM 42.8483 -84.9194 261° West 383 441 32,000  Level Chicago Center
05:08PM 42.8333 -85.0619 262° West 381 438 32,000  Level Chicago Center
05:09PM 42.8181 -85.2078 262° West 387 445 32,000  Level Chicago Center
05:10PM 42.8025 -85.3522 262° West 387 445 32,000  Level Chicago Center
05:11PM 42.7861 -85.4983 261° West 390 449 32,000  Level Chicago Center
05:12PM 42.7569 -85.6689 257° West 383 441 32,000 -1,020 Level Chicago Center
05:13PM 42.7308 -85.8089 256° West 381 438 30,000 -2,520 Descending Chicago Center
05:14PM 42.7067 -85.9417 256° West 364 419 26,800 -3,480 Descending Chicago Center
05:15PM 42.6822 -86.0761 256° West 363 418 22,900 -3,120 Descending Chicago Center
05:16PM 42.6572 -86.2081 256° West 361 415 20,500 -1,920 Descending Chicago Center
05:17PM 42.6331 -86.3381 256° West 355 409 19,000 -1,560 Descending Chicago Center
05:18PM 42.6078 -86.4697 255° West 359 413 17,400 -1,800 Descending Chicago Center
05:19PM 42.5833 -86.6011 256° West 358 412 15,300 -2,040 Descending Chicago Center
05:20PM 42.5589 -86.7308 256° West 357 411 13,300 -1,920 Descending Chicago Center
05:21PM 42.5172 -86.8836 250° West 359 413 11,400 -1,380 Descending Chicago Center
05:22PM 42.4850 -87.0050 250° West 349 402 10,500 -720 Descending Chicago Center
05:23PM 42.4514 -87.1214 249° West 337 388 10,000 -420 Descending Chicago Center
05:24PM 42.4197 -87.2239 247° West 299 344 9,700 -540 Descending Chicago Center
05:25PM 42.3433 -87.2539 196° South 293 337 9,000 -540 Descending Chicago Center
05:26PM 42.2667 -87.2733 191° South 289 333 8,600 -780 Descending Chicago Center
05:27PM 42.1761 -87.3008 193° South 280 322 7,500 -840 Descending Chicago Center
05:28PM 42.1053 -87.3189 191° South 264 304 7,000 -300 Descending Chicago Center
05:29PM 42.0325 -87.3386 191° South 267 307 7,000 -120 Level Chicago Center
05:30PM 41.9856 -87.3931 221° Southwest 239 275 6,800 -420 Descending Chicago Center
05:31PM 41.9833 -87.4333 266° West 229 264 6,400 -780 Descending Chicago TRACON
05:32PM 41.9833 -87.5167 270° West 240 276 5,700 -660 Descending Chicago TRACON
05:33PM 41.9833 -87.6000 270° West 207 238 5,200 -600 Descending Chicago TRACON